Terminal Aerodrome Forecast
Issued by NWS Twin Cities, MN

Home | Current Version | Previous Version | Text Only | Print | Product List | Glossary Off
Versions: 1 2 3 4 5 6 7 8 9 10 11 12 13 14 15 16 17 18 19 20 21 22 23 24 25 26

138
FTUS43 KMPX 262045 AAA
TAFMSP
TAF AMD
KMSP 262045Z 2621/2724 23009KT P6SM BKN050
     FM262130 24009KT P6SM VCSH BKN050
     FM262230 25008KT P6SM SCT060
     FM270100 27004KT P6SM SKC
     FM271200 25005KT P6SM SCT120 BKN250
     FM272000 25004KT P6SM OVC050=

USA.gov is the U.S. government's official web portal to all federal, state and local government web resources and services.